KNAK

United States Naval Academy Airport

Annapolis, Maryland, USA
METAR KNAK 160554Z AUTO 00000KT 9SM CLR 25/21 A3005 RMK AO2 SLP177 T02500211 10294 20244 51002
Observed Flight Rules
Aug-16 @ 05:54 UTC (24 minutes ago) Visual Flight Rules
Visibility Clouds
9 miles
  • Clear skies
Temperatures Readings
Current 25°C / 77°F
Dewpoint 21°C / 70°F
Humidity 79%
Altimeter 30.05" Hg
Pressure 1017.7 hPa
Elevation 2
METAR KNAK 160554Z AUTO 00000KT 9SM CLR 25/21 A3005 RMK AO2 SLP177 T02500211 10294 20244 51002
Observed Flight Rules
Aug-16 @ 05:54 UTC
(24 minutes ago)
VFR
Clouds
  • Clear skies
Temperature Dewpoint
25°C / 77°F 21°C / 70°F
Humidity Altimeter Pressure
79% 30.05" Hg 1017.7 hPa